createdAt,value
2018-03-02T00:00:47.475Z,25.37
2018-03-02T00:03:14.966Z,25.50
2018-03-02T00:05:42.435Z,27.20
2018-03-02T00:08:09.957Z,27.70
2018-03-02T00:10:37.431Z,24.83
2018-03-02T00:13:04.933Z,25.63
2018-03-02T00:15:32.399Z,29.27
2018-03-02T00:17:59.896Z,29.67
2018-03-02T00:20:27.369Z,25.77
2018-03-02T00:22:54.884Z,28.00
2018-03-02T00:25:22.347Z,28.20
2018-03-02T00:27:49.844Z,29.80
2018-03-02T00:30:17.311Z,27.67
2018-03-02T00:32:44.812Z,34.07
2018-03-02T00:35:12.279Z,28.60
2018-03-02T00:37:39.775Z,28.20
2018-03-02T00:40:07.235Z,26.10
2018-03-02T00:42:34.731Z,30.40
2018-03-02T00:45:02.196Z,28.13
2018-03-02T00:47:29.679Z,30.53
2018-03-02T00:49:57.146Z,31.07
2018-03-02T00:52:24.628Z,25.47
2018-03-02T00:54:52.101Z,27.87
2018-03-02T00:57:19.583Z,29.87
2018-03-02T00:59:47.052Z,32.63
2018-03-02T01:02:14.532Z,29.83
2018-03-02T01:04:41.991Z,28.50
2018-03-02T01:07:09.479Z,28.97
2018-03-02T01:09:36.940Z,31.10
2018-03-02T01:12:04.440Z,32.93
2018-03-02T01:14:31.965Z,32.53
2018-03-02T01:16:59.482Z,31.97
2018-03-02T01:19:27.026Z,30.03
2018-03-02T01:21:54.500Z,30.67
2018-03-02T01:24:21.982Z,32.13
2018-03-02T01:26:49.474Z,30.60
2018-03-02T01:29:16.959Z,33.40
2018-03-02T01:31:44.423Z,31.20
2018-03-02T01:34:11.911Z,34.47
2018-03-02T01:36:39.372Z,38.43
2018-03-02T01:39:06.863Z,32.70
2018-03-02T01:41:34.332Z,33.53
2018-03-02T01:44:01.829Z,33.10
2018-03-02T01:46:29.291Z,33.23
2018-03-02T01:48:56.779Z,30.73
2018-03-02T01:51:36.099Z,29.53
2018-03-02T01:54:03.583Z,33.10
2018-03-02T01:56:31.052Z,31.30
2018-03-02T01:58:58.539Z,33.83
2018-03-02T02:01:25.999Z,30.67
2018-03-02T02:03:53.485Z,28.33
2018-03-02T02:06:20.980Z,35.23
2018-03-02T02:08:48.482Z,29.97
2018-03-02T02:11:15.947Z,32.93
2018-03-02T02:13:43.442Z,30.20
2018-03-02T02:16:10.914Z,29.03
2018-03-02T02:18:38.394Z,33.10
2018-03-02T02:21:05.878Z,31.23
2018-03-02T02:23:33.367Z,31.43
2018-03-02T02:26:00.831Z,29.43
2018-03-02T02:28:28.334Z,34.10
2018-03-02T02:30:55.811Z,30.53
2018-03-02T02:33:23.300Z,30.60
2018-03-02T02:35:50.765Z,33.23
2018-03-02T02:38:18.269Z,30.20
2018-03-02T02:40:45.743Z,34.37
2018-03-02T02:43:13.241Z,32.10
2018-03-02T02:45:40.707Z,34.17
2018-03-02T02:48:08.193Z,32.00
2018-03-02T02:50:35.693Z,30.93
2018-03-02T02:53:03.151Z,28.23
2018-03-02T02:55:30.638Z,33.33
2018-03-02T02:57:58.102Z,29.03
2018-03-02T03:00:25.604Z,31.00
2018-03-02T03:02:53.072Z,30.37
2018-03-02T03:05:20.555Z,33.10
2018-03-02T03:07:48.080Z,33.57
2018-03-02T03:10:15.572Z,29.90
2018-03-02T03:12:43.034Z,30.80
2018-03-02T03:15:10.520Z,30.53
2018-03-02T03:17:37.995Z,32.07
2018-03-02T03:20:05.487Z,34.77
2018-03-02T03:22:32.980Z,34.60
2018-03-02T03:25:00.468Z,34.17
2018-03-02T03:27:27.932Z,35.78
2018-03-02T03:29:55.414Z,34.93
2018-03-02T03:32:22.875Z,31.90
2018-03-02T03:34:50.367Z,30.67
2018-03-02T03:37:17.852Z,31.53
2018-03-02T03:39:45.334Z,29.13
2018-03-02T03:42:12.794Z,33.70
2018-03-02T03:44:40.283Z,32.27
2018-03-02T03:47:07.747Z,33.30
2018-03-02T03:49:35.231Z,34.10
2018-03-02T03:52:02.720Z,31.13
2018-03-02T03:54:30.211Z,37.50
2018-03-02T03:56:57.680Z,31.23
2018-03-02T03:59:25.163Z,36.00
2018-03-02T04:01:52.648Z,32.33
2018-03-02T04:04:20.131Z,35.27
2018-03-02T04:06:47.595Z,35.20
2018-03-02T04:09:15.067Z,36.57
2018-03-02T04:11:42.575Z,31.80
2018-03-02T04:14:10.031Z,34.00
2018-03-02T04:16:37.515Z,38.90
2018-03-02T04:19:04.977Z,34.53
2018-03-02T04:21:32.455Z,36.33
2018-03-02T04:24:00.055Z,33.23
2018-03-02T04:26:27.547Z,31.43
2018-03-02T04:28:55.015Z,37.87
2018-03-02T04:31:22.516Z,30.73
2018-03-02T04:33:49.974Z,30.97
2018-03-02T04:36:17.490Z,34.77
2018-03-02T04:38:44.961Z,32.77
2018-03-02T04:41:13.154Z,38.50
2018-03-02T04:43:40.623Z,32.27
2018-03-02T04:46:08.104Z,32.40
2018-03-02T04:48:35.590Z,34.50
2018-03-02T04:51:03.069Z,31.93
2018-03-02T04:53:30.531Z,37.27
2018-03-02T04:55:58.039Z,33.53
2018-03-02T04:58:25.506Z,34.00
2018-03-02T05:00:52.990Z,33.30
2018-03-02T05:03:20.474Z,34.30
2018-03-02T05:05:47.964Z,35.70
2018-03-02T05:08:15.433Z,34.57
2018-03-02T05:10:42.928Z,35.43
2018-03-02T05:13:10.395Z,35.97
2018-03-02T05:15:37.891Z,33.17
2018-03-02T05:18:05.392Z,34.57
2018-03-02T05:20:32.879Z,36.03
2018-03-02T05:23:00.347Z,35.90
2018-03-02T05:25:27.833Z,34.10
2018-03-02T05:27:55.311Z,34.80
2018-03-02T05:30:22.770Z,33.20
2018-03-02T05:32:50.263Z,33.40
2018-03-02T05:35:17.736Z,34.47
2018-03-02T05:37:45.215Z,33.00
2018-03-02T05:40:12.680Z,34.07
2018-03-02T05:42:40.189Z,31.50
2018-03-02T05:45:07.667Z,37.60
2018-03-02T05:47:35.156Z,33.17
2018-03-02T05:50:02.620Z,35.20
2018-03-02T05:52:30.115Z,33.77
2018-03-02T05:54:57.574Z,34.10
2018-03-02T05:57:25.054Z,30.40
2018-03-02T05:59:52.514Z,33.83
2018-03-02T06:02:20.001Z,33.63
2018-03-02T06:04:47.461Z,33.23
2018-03-02T06:07:14.960Z,32.43
2018-03-02T06:09:42.423Z,35.23
2018-03-02T06:12:09.920Z,37.97
2018-03-02T06:14:37.392Z,34.73
2018-03-02T06:17:04.872Z,32.43
2018-03-02T06:19:33.088Z,37.00
2018-03-02T06:22:02.198Z,33.03
2018-03-02T06:24:29.658Z,32.90
2018-03-02T06:26:57.139Z,34.70
2018-03-02T06:29:24.600Z,38.73
2018-03-02T06:31:52.079Z,34.43
2018-03-02T06:34:19.551Z,33.23
2018-03-02T06:36:47.039Z,37.90
2018-03-02T06:39:14.510Z,34.30
2018-03-02T06:41:42.000Z,39.97
2018-03-02T06:44:09.471Z,35.53
2018-03-02T06:46:37.190Z,36.57
2018-03-02T06:49:04.659Z,36.43
2018-03-02T06:51:33.260Z,35.40
2018-03-02T06:54:08.399Z,37.03
2018-03-02T06:56:35.910Z,35.70
2018-03-02T06:59:03.399Z,32.50
2018-03-02T07:01:30.877Z,37.67
2018-03-02T07:03:58.364Z,38.83
2018-03-02T07:06:25.835Z,36.50
2018-03-02T07:08:53.323Z,37.73
2018-03-02T07:11:20.791Z,36.30
2018-03-02T07:13:48.283Z,35.03
2018-03-02T07:16:15.739Z,35.27
2018-03-02T07:18:43.235Z,38.77
2018-03-02T07:21:10.699Z,31.50
2018-03-02T07:23:38.186Z,33.30
2018-03-02T07:26:05.672Z,36.60
2018-03-02T07:28:33.210Z,34.10
2018-03-02T07:31:00.675Z,33.20
2018-03-02T07:33:28.171Z,33.40
2018-03-02T07:35:55.630Z,35.53
2018-03-02T07:38:23.161Z,35.20
2018-03-02T07:40:50.677Z,38.93
2018-03-02T07:43:18.168Z,39.10
2018-03-02T07:45:45.651Z,37.27
2018-03-02T07:48:13.143Z,38.70
2018-03-02T07:50:40.609Z,33.63
2018-03-02T07:53:08.104Z,37.60
2018-03-02T07:55:35.580Z,40.80
2018-03-02T07:58:03.044Z,36.00
2018-03-02T08:00:30.523Z,33.33
2018-03-02T08:02:57.988Z,30.67
2018-03-02T08:05:25.476Z,34.03
2018-03-02T08:07:52.946Z,35.87
2018-03-02T08:10:20.431Z,35.03
2018-03-02T08:12:47.899Z,32.63
2018-03-02T08:15:15.382Z,31.20
2018-03-02T08:17:42.848Z,34.30
2018-03-02T08:20:10.338Z,32.10
2018-03-02T08:22:37.801Z,35.33
2018-03-02T08:25:05.287Z,34.60
2018-03-02T08:27:32.789Z,33.83
2018-03-02T08:30:00.271Z,32.90
2018-03-02T08:32:27.750Z,31.57
2018-03-02T08:34:55.248Z,31.83
2018-03-02T08:37:22.719Z,37.27
2018-03-02T08:39:50.202Z,35.80
2018-03-02T08:42:17.666Z,34.97
2018-03-02T08:44:45.143Z,32.73
2018-03-02T08:47:12.606Z,31.90
2018-03-02T08:49:40.108Z,33.53
2018-03-02T08:52:07.569Z,33.90
2018-03-02T08:54:35.076Z,28.70
2018-03-02T08:57:02.563Z,36.57
2018-03-02T08:59:30.046Z,34.43
2018-03-02T09:01:57.535Z,34.27
2018-03-02T09:04:25.009Z,34.57
2018-03-02T09:06:52.467Z,34.03
2018-03-02T09:09:19.932Z,33.03
2018-03-02T09:11:47.908Z,33.07
2018-03-02T09:14:15.376Z,31.63
2018-03-02T09:16:42.852Z,33.07
2018-03-02T09:19:10.344Z,32.13
2018-03-02T09:21:37.827Z,34.77
2018-03-02T09:24:05.302Z,34.93
2018-03-02T09:26:32.783Z,32.67
2018-03-02T09:29:00.239Z,33.27
2018-03-02T09:31:27.730Z,35.00
2018-03-02T09:33:55.191Z,34.83
2018-03-02T09:36:22.669Z,36.47
2018-03-02T09:38:50.146Z,32.93
2018-03-02T09:41:17.623Z,34.33
2018-03-02T09:43:45.083Z,33.27
2018-03-02T09:46:12.576Z,33.23
2018-03-02T09:48:40.060Z,33.30
2018-03-02T09:51:07.556Z,33.73
2018-03-02T09:53:35.007Z,33.47
2018-03-02T09:56:02.512Z,34.23
2018-03-02T09:58:30.032Z,34.13
2018-03-02T10:00:57.523Z,32.60
2018-03-02T10:03:24.991Z,34.03
2018-03-02T10:05:52.471Z,34.07
2018-03-02T10:08:19.925Z,38.43
2018-03-02T10:10:47.403Z,34.27
2018-03-02T10:13:14.861Z,35.47
2018-03-02T10:15:42.347Z,34.67
2018-03-02T10:18:09.807Z,33.93
2018-03-02T10:20:37.284Z,36.37
2018-03-02T10:23:04.751Z,35.37
2018-03-02T10:25:32.232Z,36.27
2018-03-02T10:27:59.697Z,38.07
2018-03-02T10:30:27.192Z,34.97
2018-03-02T10:32:54.656Z,32.73
2018-03-02T10:35:22.111Z,36.80
2018-03-02T10:37:49.602Z,34.13
2018-03-02T10:40:17.068Z,39.17
2018-03-02T10:42:44.542Z,38.63
2018-03-02T10:45:12.023Z,33.87
2018-03-02T10:47:39.543Z,36.17
2018-03-02T10:50:07.024Z,35.53
2018-03-02T10:52:34.510Z,32.50
2018-03-02T10:55:01.984Z,34.73
2018-03-02T10:57:29.471Z,35.60
2018-03-02T10:59:56.940Z,35.20
2018-03-02T11:02:24.917Z,37.10
2018-03-02T11:04:57.995Z,36.40
2018-03-02T11:07:25.471Z,36.93
2018-03-02T11:09:52.929Z,37.50
2018-03-02T11:12:20.398Z,36.70
2018-03-02T11:14:47.886Z,35.57
2018-03-02T11:17:15.387Z,35.17
2018-03-02T11:19:42.846Z,36.10
2018-03-02T11:22:10.320Z,38.57
2018-03-02T11:24:37.780Z,33.30
2018-03-02T11:27:05.267Z,31.13
2018-03-02T11:29:32.728Z,38.23
2018-03-02T11:32:00.204Z,36.37
2018-03-02T11:34:27.660Z,33.63
2018-03-02T11:36:55.144Z,36.57
2018-03-02T11:39:22.615Z,35.53
2018-03-02T11:41:50.098Z,35.53
2018-03-02T11:44:17.556Z,34.37
2018-03-02T11:46:45.032Z,34.53
2018-03-02T11:49:12.511Z,35.43
2018-03-02T11:51:40.003Z,36.50
2018-03-02T11:54:07.458Z,37.10
2018-03-02T11:56:34.943Z,34.73
2018-03-02T11:59:02.400Z,35.50
2018-03-02T12:01:29.880Z,35.13
2018-03-02T12:03:57.366Z,35.93
2018-03-02T12:06:24.837Z,33.40
2018-03-02T12:08:52.331Z,37.23
2018-03-02T12:11:19.812Z,38.93
2018-03-02T12:13:47.296Z,37.80
2018-03-02T12:16:14.751Z,37.03
2018-03-02T12:18:42.276Z,36.97
2018-03-02T12:21:09.743Z,35.43
2018-03-02T12:23:37.224Z,31.30
2018-03-02T12:26:04.692Z,35.57
2018-03-02T12:28:32.201Z,33.37
2018-03-02T12:30:59.695Z,34.87
2018-03-02T12:33:27.156Z,36.33
2018-03-02T12:35:54.664Z,36.70
2018-03-02T12:38:22.161Z,36.73
2018-03-02T12:40:49.625Z,38.37
2018-03-02T12:43:17.140Z,35.50
2018-03-02T12:45:45.044Z,38.23
2018-03-02T12:48:12.525Z,34.03
2018-03-02T12:50:39.988Z,34.53
2018-03-02T12:53:07.492Z,38.87
2018-03-02T12:55:34.967Z,38.00
2018-03-02T12:58:02.444Z,37.90
2018-03-02T13:00:29.957Z,36.80
2018-03-02T13:02:57.431Z,37.73
2018-03-02T13:05:24.888Z,31.50
2018-03-02T13:07:53.220Z,37.70
2018-03-02T13:10:20.678Z,38.03
2018-03-02T13:12:48.170Z,38.00
2018-03-02T13:15:15.627Z,36.83
2018-03-02T13:17:43.105Z,43.00
2018-03-02T13:20:10.567Z,37.90
2018-03-02T13:22:41.333Z,36.23
2018-03-02T13:25:08.801Z,36.73
2018-03-02T13:30:40.230Z,38.23
2018-03-02T13:33:19.492Z,32.80
2018-03-02T13:35:46.952Z,35.90
2018-03-02T13:38:14.442Z,40.40
2018-03-02T13:40:53.595Z,37.27
2018-03-02T13:43:21.082Z,36.20
2018-03-02T13:45:48.547Z,38.17
2018-03-02T13:48:36.563Z,38.17
2018-03-02T13:51:04.031Z,37.87
2018-03-02T13:53:31.517Z,39.97
2018-03-02T13:55:58.978Z,35.80
2018-03-02T13:58:26.450Z,37.57
2018-03-02T14:00:53.931Z,39.93
2018-03-02T14:03:33.162Z,37.10
2018-03-02T14:06:00.649Z,39.43
2018-03-02T14:08:28.111Z,41.97
2018-03-02T14:10:55.594Z,39.42
2018-03-02T14:13:23.052Z,40.33
2018-03-02T14:15:50.540Z,38.97
2018-03-02T14:18:18.007Z,40.07
2018-03-02T14:20:45.497Z,39.97
2018-03-02T14:23:12.980Z,37.00
2018-03-02T14:25:40.497Z,49.63
2018-03-02T14:28:07.977Z,35.93
2018-03-02T14:30:35.455Z,37.27
2018-03-02T14:33:02.947Z,37.57
2018-03-02T14:35:30.423Z,37.90
2018-03-02T14:37:57.880Z,37.73
2018-03-02T14:40:25.374Z,35.17
2018-03-02T14:42:52.830Z,34.57
2018-03-02T14:45:21.152Z,38.47
2018-03-02T14:47:48.623Z,36.30
2018-03-02T14:50:16.163Z,38.73
2018-03-02T14:52:43.632Z,39.83
2018-03-02T14:55:11.099Z,40.47
2018-03-02T14:57:38.609Z,37.33
2018-03-02T15:00:06.067Z,39.20
2018-03-02T15:02:33.543Z,40.27
2018-03-02T15:05:01.019Z,39.90
2018-03-02T15:07:28.554Z,39.73
2018-03-02T15:09:56.003Z,42.00
2018-03-02T15:12:23.479Z,38.27
2018-03-02T15:14:50.955Z,40.90
2018-03-02T15:17:18.443Z,43.53
2018-03-02T15:19:45.904Z,40.03
2018-03-02T15:22:13.387Z,36.87
2018-03-02T15:24:40.843Z,43.40
2018-03-02T15:27:08.320Z,38.37
2018-03-02T15:29:35.793Z,46.80
2018-03-02T15:32:03.311Z,40.27
2018-03-02T15:34:31.040Z,39.63
2018-03-02T15:36:58.516Z,41.47
2018-03-02T15:39:25.987Z,43.37
2018-03-02T15:41:53.484Z,45.77
2018-03-02T15:44:20.950Z,42.70
2018-03-02T15:46:48.432Z,43.93
2018-03-02T15:49:15.893Z,39.50
2018-03-02T15:51:43.376Z,39.97
2018-03-02T15:54:10.844Z,40.70
2018-03-02T15:56:38.365Z,43.77
2018-03-02T15:59:05.891Z,42.93
2018-03-02T16:01:33.375Z,41.17
2018-03-02T16:04:00.835Z,40.80
2018-03-02T16:06:29.015Z,45.63
2018-03-02T16:08:56.463Z,38.53
2018-03-02T16:11:23.948Z,42.60
2018-03-02T16:13:51.458Z,43.23
2018-03-02T16:16:18.990Z,41.63
2018-03-02T16:18:46.510Z,40.20
2018-03-02T16:21:14.005Z,43.20
2018-03-02T16:23:41.513Z,38.67
2018-03-02T16:26:08.983Z,44.73
2018-03-02T16:28:36.465Z,42.27
2018-03-02T16:31:03.926Z,45.93
2018-03-02T16:33:31.411Z,44.90
2018-03-02T16:35:58.884Z,40.07
2018-03-02T16:38:26.368Z,44.50
2018-03-02T16:40:53.835Z,52.80
2018-03-02T16:43:21.325Z,47.37
2018-03-02T16:45:48.856Z,47.70
2018-03-02T16:48:16.344Z,48.53
2018-03-02T16:50:43.823Z,48.20
2018-03-02T16:53:11.313Z,44.30
2018-03-02T16:55:38.776Z,46.13
2018-03-02T16:58:06.268Z,38.87
2018-03-02T17:00:33.733Z,46.10
2018-03-02T17:03:01.220Z,44.37
2018-03-02T17:05:28.692Z,37.87
2018-03-02T17:07:56.195Z,42.73
2018-03-02T17:10:23.687Z,42.83
2018-03-02T17:12:51.209Z,48.33
2018-03-02T17:15:18.666Z,47.47
2018-03-02T17:17:46.178Z,46.97
2018-03-02T17:20:13.676Z,43.53
2018-03-02T17:22:41.160Z,49.30
2018-03-02T17:25:08.624Z,48.47
2018-03-02T17:27:36.109Z,45.40
2018-03-02T17:30:04.527Z,47.47
2018-03-02T17:32:32.016Z,47.57
2018-03-02T17:34:59.495Z,46.17
2018-03-02T17:37:26.990Z,44.83
2018-03-02T17:39:54.451Z,46.70
2018-03-02T17:42:21.931Z,51.10
2018-03-02T17:44:49.435Z,51.37
2018-03-02T17:47:16.899Z,47.23
2018-03-02T17:49:44.380Z,49.73
2018-03-02T17:52:11.844Z,48.13
2018-03-02T17:54:39.331Z,49.57
2018-03-02T17:57:06.799Z,46.73
2018-03-02T17:59:36.190Z,48.87
2018-03-02T18:02:06.805Z,50.13
2018-03-02T18:04:34.287Z,48.77
2018-03-02T18:07:01.763Z,48.07
2018-03-02T18:09:29.268Z,49.37
2018-03-02T18:11:56.723Z,50.77
2018-03-02T18:14:24.208Z,48.37
2018-03-02T18:16:51.674Z,47.03
2018-03-02T18:19:19.164Z,53.20
2018-03-02T18:21:46.631Z,48.17
2018-03-02T18:24:14.111Z,52.10
2018-03-02T18:26:41.575Z,46.23
2018-03-02T18:29:09.102Z,47.70
2018-03-02T18:31:36.567Z,51.43
2018-03-02T18:34:04.043Z,48.23
2018-03-02T18:36:31.507Z,50.10
2018-03-02T18:38:58.983Z,48.23
2018-03-02T18:41:26.467Z,46.47
2018-03-02T18:43:53.948Z,47.90
2018-03-02T18:46:21.580Z,50.97
2018-03-02T18:48:49.075Z,48.60
2018-03-02T18:51:19.863Z,44.10
2018-03-02T18:53:47.349Z,52.97
2018-03-02T18:56:14.842Z,44.47
2018-03-02T18:58:42.404Z,47.97
2018-03-02T19:01:09.853Z,49.73
2018-03-02T19:03:37.335Z,49.10
2018-03-02T19:06:04.807Z,57.63
2018-03-02T19:08:32.270Z,51.07
2018-03-02T19:10:59.759Z,50.10
2018-03-02T19:13:27.228Z,49.97
2018-03-02T19:15:54.706Z,48.83
2018-03-02T19:18:22.171Z,56.80
2018-03-02T19:20:49.664Z,53.43
2018-03-02T19:23:17.141Z,54.03
2018-03-02T19:25:44.645Z,59.03
2018-03-02T19:28:12.123Z,55.10
2018-03-02T19:30:39.623Z,58.53
2018-03-02T19:33:07.098Z,52.10
2018-03-02T19:35:34.648Z,51.90
2018-03-02T19:38:02.139Z,54.40
2018-03-02T19:40:29.624Z,54.67
2018-03-02T19:42:57.092Z,52.43
2018-03-02T19:45:24.628Z,55.90
2018-03-02T19:47:52.087Z,57.37
2018-03-02T19:50:19.567Z,54.70
2018-03-02T19:52:47.031Z,61.97
2018-03-02T19:55:14.519Z,56.27
2018-03-02T19:57:42.971Z,57.60
2018-03-02T20:00:10.459Z,65.50
2018-03-02T20:02:37.927Z,61.07
2018-03-02T20:05:05.407Z,65.93
2018-03-02T20:07:32.885Z,64.13
2018-03-02T20:10:00.446Z,65.43
2018-03-02T20:12:27.847Z,63.40
2018-03-02T20:14:55.335Z,59.70
2018-03-02T20:17:22.812Z,66.70
2018-03-02T20:19:50.325Z,69.30
2018-03-02T20:22:18.025Z,68.70
2018-03-02T20:24:45.529Z,66.73
2018-03-02T20:27:12.986Z,70.23
2018-03-02T20:29:40.473Z,68.67
2018-03-02T20:32:07.943Z,77.80
2018-03-02T20:34:35.401Z,76.03
2018-03-02T20:37:02.885Z,77.60
2018-03-02T20:39:30.357Z,75.07
2018-03-02T20:41:57.847Z,76.87
2018-03-02T20:44:25.368Z,74.37
2018-03-02T20:46:52.854Z,74.67
2018-03-02T20:49:20.313Z,78.67
2018-03-02T20:51:47.795Z,74.97
2018-03-02T20:54:15.250Z,85.87
2018-03-02T20:56:42.780Z,90.67
2018-03-02T20:59:10.247Z,83.00
2018-03-02T21:01:37.815Z,87.57
2018-03-02T21:04:05.284Z,89.47
2018-03-02T21:06:32.765Z,79.83
2018-03-02T21:09:00.227Z,80.10
2018-03-02T21:11:27.716Z,83.83
2018-03-02T21:13:55.179Z,84.17
2018-03-02T21:16:22.683Z,86.87
2018-03-02T21:18:50.156Z,85.93
2018-03-02T21:21:17.643Z,85.17
2018-03-02T21:23:45.107Z,84.80
2018-03-02T21:26:12.588Z,85.23
2018-03-02T21:28:40.054Z,86.53
2018-03-02T21:31:07.553Z,82.53
2018-03-02T21:33:35.015Z,81.73
2018-03-02T21:36:03.163Z,89.53
2018-03-02T21:38:30.627Z,82.30
2018-03-02T21:40:58.107Z,78.80
2018-03-02T21:43:25.567Z,79.03
2018-03-02T21:45:53.046Z,76.47
2018-03-02T21:48:20.511Z,86.17
2018-03-02T21:50:47.999Z,85.93
2018-03-02T21:53:16.095Z,84.33
2018-03-02T21:55:43.567Z,82.67
2018-03-02T21:58:11.104Z,78.97
2018-03-02T22:00:38.578Z,80.80
2018-03-02T22:03:06.059Z,81.40
2018-03-02T22:05:33.521Z,82.67
2018-03-02T22:08:01.058Z,76.63
2018-03-02T22:10:28.539Z,80.83
2018-03-02T22:12:56.032Z,82.07
2018-03-02T22:15:24.420Z,78.77
2018-03-02T22:17:51.927Z,85.27
2018-03-02T22:20:19.391Z,80.63
2018-03-02T22:22:46.875Z,80.37
2018-03-02T22:25:14.358Z,84.23
2018-03-02T22:27:41.847Z,83.80
2018-03-02T22:30:09.315Z,83.43
2018-03-02T22:32:36.791Z,81.63
2018-03-02T22:35:08.603Z,87.30
2018-03-02T22:37:36.097Z,77.70
2018-03-02T22:40:03.564Z,85.93
2018-03-02T22:42:31.059Z,83.63
2018-03-02T22:44:58.530Z,82.20
2018-03-02T22:47:26.016Z,87.07
2018-03-02T22:49:53.480Z,84.10
2018-03-02T22:52:20.971Z,80.90
2018-03-02T22:54:48.432Z,73.90
2018-03-02T22:57:15.936Z,82.63
2018-03-02T22:59:43.401Z,85.17
2018-03-02T23:02:10.890Z,76.60
2018-03-02T23:04:38.362Z,76.37
2018-03-02T23:07:05.859Z,86.07
2018-03-02T23:09:33.369Z,88.03
2018-03-02T23:12:00.851Z,78.10
2018-03-02T23:14:28.313Z,85.00
2018-03-02T23:16:55.807Z,86.40
2018-03-02T23:19:23.267Z,80.90
2018-03-02T23:21:50.767Z,83.23
2018-03-02T23:24:18.231Z,86.20
2018-03-02T23:26:45.695Z,81.70
2018-03-02T23:29:13.183Z,89.73
2018-03-02T23:31:40.653Z,88.50
2018-03-02T23:34:08.143Z,78.67
2018-03-02T23:36:35.616Z,89.27
2018-03-02T23:39:03.100Z,86.93
2018-03-02T23:41:30.565Z,80.00
2018-03-02T23:43:58.047Z,86.50
2018-03-02T23:46:25.510Z,79.80
2018-03-02T23:48:52.990Z,77.70
2018-03-02T23:51:20.451Z,77.57
2018-03-02T23:53:47.935Z,92.70
2018-03-02T23:56:15.466Z,82.57
2018-03-02T23:58:42.951Z,79.83
